Terminal Aerodrome Forecast
Issued by NWS Aberdeen, SD

Home | Current Version | Previous Version | Text Only | Print | Product List | Glossary On
Versions: 1 2 3 4 5 6 7 8 9 10 11 12 13 14 15 16 17 18 19 20 21 22 23 24 25 26 27 28 29 30 31 32 33 34 35 36 37 38 39 40 41 42 43 44 45 46 47 48 49 50
000
FTUS43 KABR 221740 AAR
TAFABR
TAF AMD
KABR 221740Z 2218/2318 03015G22KT 3/4SM -SN BR BLSN OVC011
     FM222000 02016G22KT 1 1/2SM -SN BR OVC010
     FM222300 36014G20KT 4SM BR VCSH OVC009
     FM230500 34012KT P6SM OVC009
     FM231300 32010KT P6SM SCT019=

USA.gov is the U.S. government's official web portal to all federal, state and local government web resources and services.